sensor_id;sensor_type;location;lat;lon;timestamp;pressure;altitude;pressure_sealevel;temperature;humidity
28354;BME280;15603;50.878;8.036;2023-04-26T00:02:18;143949.13;;;2.89;100.00
28354;BME280;15603;50.878;8.036;2023-04-26T00:04:50;143911.69;;;2.73;100.00
28354;BME280;15603;50.878;8.036;2023-04-26T00:07:18;143935.84;;;2.84;100.00
28354;BME280;15603;50.878;8.036;2023-04-26T00:09:45;143866.97;;;2.54;100.00
28354;BME280;15603;50.878;8.036;2023-04-26T00:12:12;143877.84;;;2.59;100.00
28354;BME280;15603;50.878;8.036;2023-04-26T00:14:39;143886.31;;;2.63;100.00
28354;BME280;15603;50.878;8.036;2023-04-26T00:17:06;143940.69;;;2.86;100.00
28354;BME280;15603;50.878;8.036;2023-04-26T00:19:33;143910.44;;;2.73;100.00
28354;BME280;15603;50.878;8.036;2023-04-26T00:22:00;143901.97;;;2.69;100.00
28354;BME280;15603;50.878;8.036;2023-04-26T00:24:27;143850.03;;;2.47;100.00
28354;BME280;15603;50.878;8.036;2023-04-26T00:26:55;143876.63;;;2.59;100.00
28354;BME280;15603;50.878;8.036;2023-04-26T00:29:22;143880.28;;;2.60;100.00
28354;BME280;15603;50.878;8.036;2023-04-26T00:31:49;143825.91;;;2.37;100.00
28354;BME280;15603;50.878;8.036;2023-04-26T00:34:17;143858.50;;;2.51;100.00
28354;BME280;15603;50.878;8.036;2023-04-26T00:36:44;143801.72;;;2.27;100.00
28354;BME280;15603;50.878;8.036;2023-04-26T00:39:11;143824.66;;;2.36;100.00
28354;BME280;15603;50.878;8.036;2023-04-26T00:41:38;143807.78;;;2.29;100.00
28354;BME280;15603;50.878;8.036;2023-04-26T00:44:05;143794.50;;;2.24;100.00
28354;BME280;15603;50.878;8.036;2023-04-26T00:46:33;143796.88;;;2.25;100.00
28354;BME280;15603;50.878;8.036;2023-04-26T00:49:00;143792.06;;;2.23;100.00
28354;BME280;15603;50.878;8.036;2023-04-26T00:51:27;143780.00;;;2.18;100.00
28354;BME280;15603;50.878;8.036;2023-04-26T00:53:54;143755.81;;;2.07;100.00
28354;BME280;15603;50.878;8.036;2023-04-26T00:56:23;143760.63;;;2.09;100.00
28354;BME280;15603;50.878;8.036;2023-04-26T00:58:51;143736.50;;;1.99;100.00
28354;BME280;15603;50.878;8.036;2023-04-26T01:01:18;143755.81;;;2.07;100.00
28354;BME280;15603;50.878;8.036;2023-04-26T01:03:45;143722.03;;;1.93;100.00
28354;BME280;15603;50.878;8.036;2023-04-26T01:06:14;143769.09;;;2.13;100.00
28354;BME280;15603;50.878;8.036;2023-04-26T01:08:41;143671.31;;;1.71;100.00
28354;BME280;15603;50.878;8.036;2023-04-26T01:11:08;143740.13;;;2.01;100.00
28354;BME280;15603;50.878;8.036;2023-04-26T01:13:37;143661.63;;;1.67;100.00
28354;BME280;15603;50.878;8.036;2023-04-26T01:16:06;143714.75;;;1.90;100.00
28354;BME280;15603;50.878;8.036;2023-04-26T01:18:34;143717.19;;;1.91;100.00
28354;BME280;15603;50.878;8.036;2023-04-26T01:21:01;143708.72;;;1.87;100.00
28354;BME280;15603;50.878;8.036;2023-04-26T01:23:30;143697.84;;;1.83;100.00
28354;BME280;15603;50.878;8.036;2023-04-26T01:25:58;143718.38;;;1.91;100.00
28354;BME280;15603;50.878;8.036;2023-04-26T01:28:25;143705.09;;;1.86;100.00
28354;BME280;15603;50.878;8.036;2023-04-26T01:30:52;143687.00;;;1.78;100.00
28354;BME280;15603;50.878;8.036;2023-04-26T01:33:19;143647.13;;;1.61;100.00
28354;BME280;15603;50.878;8.036;2023-04-26T01:35:46;143671.31;;;1.71;100.00
28354;BME280;15603;50.878;8.036;2023-04-26T01:38:13;143670.06;;;1.71;100.00
28354;BME280;15603;50.878;8.036;2023-04-26T01:40:41;143619.38;;;1.49;100.00
28354;BME280;15603;50.878;8.036;2023-04-26T01:43:11;143591.63;;;1.37;100.00
28354;BME280;15603;50.878;8.036;2023-04-26T01:45:39;143572.31;;;1.29;100.00
28354;BME280;15603;50.878;8.036;2023-04-26T01:48:25;143626.63;;;1.52;100.00
28354;BME280;15603;50.878;8.036;2023-04-26T01:51:04;143597.63;;;1.40;100.00
28354;BME280;15603;50.878;8.036;2023-04-26T01:53:32;143568.69;;;1.28;100.00
28354;BME280;15603;50.878;8.036;2023-04-26T01:56:00;143606.09;;;1.44;100.00
28354;BME280;15603;50.878;8.036;2023-04-26T01:58:29;143618.19;;;1.49;100.00
28354;BME280;15603;50.878;8.036;2023-04-26T02:01:04;143596.44;;;1.40;100.00
28354;BME280;15603;50.878;8.036;2023-04-26T02:03:31;143613.34;;;1.47;100.00
28354;BME280;15603;50.878;8.036;2023-04-26T02:05:58;143606.09;;;1.44;100.00
28354;BME280;15603;50.878;8.036;2023-04-26T02:08:27;143601.25;;;1.42;100.00
28354;BME280;15603;50.878;8.036;2023-04-26T02:10:54;143594.00;;;1.38;100.00
28354;BME280;15603;50.878;8.036;2023-04-26T02:13:21;143618.19;;;1.49;100.00
28354;BME280;15603;50.878;8.036;2023-04-26T02:15:49;143610.91;;;1.46;100.00
28354;BME280;15603;50.878;8.036;2023-04-26T02:18:17;143528.84;;;1.11;100.00
28354;BME280;15603;50.878;8.036;2023-04-26T02:20:49;143540.94;;;1.16;100.00
28354;BME280;15603;50.878;8.036;2023-04-26T02:23:16;143626.63;;;1.52;100.00
28354;BME280;15603;50.878;8.036;2023-04-26T02:25:47;143589.19;;;1.36;100.00
28354;BME280;15603;50.878;8.036;2023-04-26T02:28:16;143531.28;;;1.12;100.00
28354;BME280;15603;50.878;8.036;2023-04-26T02:30:43;143579.53;;;1.32;100.00
28354;BME280;15603;50.878;8.036;2023-04-26T02:33:10;143555.41;;;1.22;100.00
28354;BME280;15603;50.878;8.036;2023-04-26T02:35:38;143533.66;;;1.13;100.00
28354;BME280;15603;50.878;8.036;2023-04-26T02:38:05;143521.56;;;1.08;100.00
28354;BME280;15603;50.878;8.036;2023-04-26T02:40:32;143510.72;;;1.03;100.00
28354;BME280;15603;50.878;8.036;2023-04-26T02:43:00;143538.50;;;1.15;100.00
28354;BME280;15603;50.878;8.036;2023-04-26T02:45:27;143492.63;;;0.95;100.00
28354;BME280;15603;50.878;8.036;2023-04-26T02:47:54;143514.38;;;1.05;100.00
28354;BME280;15603;50.878;8.036;2023-04-26T02:50:22;143534.84;;;1.13;100.00
28354;BME280;15603;50.878;8.036;2023-04-26T02:52:50;143499.91;;;0.98;100.00
28354;BME280;15603;50.878;8.036;2023-04-26T02:55:17;143503.47;;;1.00;100.00
28354;BME280;15603;50.878;8.036;2023-04-26T02:57:44;143504.72;;;1.01;100.00
28354;BME280;15603;50.878;8.036;2023-04-26T03:00:12;143504.72;;;1.01;100.00
28354;BME280;15603;50.878;8.036;2023-04-26T03:02:42;143474.53;;;0.88;100.00
28354;BME280;15603;50.878;8.036;2023-04-26T03:05:09;143379.22;;;0.47;100.00
28354;BME280;15603;50.878;8.036;2023-04-26T03:07:36;143441.97;;;0.74;100.00
28354;BME280;15603;50.878;8.036;2023-04-26T03:10:04;143466.09;;;0.84;100.00
28354;BME280;15603;50.878;8.036;2023-04-26T03:12:32;143447.97;;;0.76;100.00
28354;BME280;15603;50.878;8.036;2023-04-26T03:15:00;143355.13;;;0.37;100.00
28354;BME280;15603;50.878;8.036;2023-04-26T03:17:30;143405.78;;;0.58;100.00
28354;BME280;15603;50.878;8.036;2023-04-26T03:19:57;143406.97;;;0.59;100.00
28354;BME280;15603;50.878;8.036;2023-04-26T03:22:27;143456.44;;;0.80;100.00
28354;BME280;15603;50.878;8.036;2023-04-26T03:24:54;143444.34;;;0.75;100.00
28354;BME280;15603;50.878;8.036;2023-04-26T03:27:23;143398.50;;;0.55;100.00
28354;BME280;15603;50.878;8.036;2023-04-26T03:29:50;143405.78;;;0.58;100.00
28354;BME280;15603;50.878;8.036;2023-04-26T03:32:18;143421.44;;;0.65;100.00
28354;BME280;15603;50.878;8.036;2023-04-26T03:34:45;143309.28;;;0.17;100.00
28354;BME280;15603;50.878;8.036;2023-04-26T03:37:14;143391.31;;;0.52;100.00
28354;BME280;15603;50.878;8.036;2023-04-26T03:39:44;143378.03;;;0.47;100.00
28354;BME280;15603;50.878;8.036;2023-04-26T03:42:11;143340.59;;;0.31;100.00
28354;BME280;15603;50.878;8.036;2023-04-26T03:44:38;143362.31;;;0.40;100.00
28354;BME280;15603;50.878;8.036;2023-04-26T03:47:05;143380.41;;;0.48;100.00
28354;BME280;15603;50.878;8.036;2023-04-26T03:49:32;143321.31;;;0.23;100.00
28354;BME280;15603;50.878;8.036;2023-04-26T03:51:59;143302.03;;;0.14;100.00
28354;BME280;15603;50.878;8.036;2023-04-26T03:54:27;143351.47;;;0.35;100.00
28354;BME280;15603;50.878;8.036;2023-04-26T03:56:54;143330.97;;;0.27;100.00
28354;BME280;15603;50.878;8.036;2023-04-26T03:59:21;143350.28;;;0.35;100.00
28354;BME280;15603;50.878;8.036;2023-04-26T04:01:49;143302.03;;;0.14;100.00
28354;BME280;15603;50.878;8.036;2023-04-26T04:04:16;143356.31;;;0.37;100.00
28354;BME280;15603;50.878;8.036;2023-04-26T04:06:45;143356.31;;;0.37;100.00
28354;BME280;15603;50.878;8.036;2023-04-26T04:09:12;143296.03;;;0.12;100.00
28354;BME280;15603;50.878;8.036;2023-04-26T04:11:40;143330.97;;;0.27;100.00
28354;BME280;15603;50.878;8.036;2023-04-26T04:14:07;143312.88;;;0.19;100.00
28354;BME280;15603;50.878;8.036;2023-04-26T04:16:34;143298.41;;;0.13;100.00
28354;BME280;15603;50.878;8.036;2023-04-26T04:19:02;143299.59;;;0.13;100.00
28354;BME280;15603;50.878;8.036;2023-04-26T04:21:29;143323.75;;;0.24;100.00
28354;BME280;15603;50.878;8.036;2023-04-26T04:23:57;143363.56;;;0.41;100.00
28354;BME280;15603;50.878;8.036;2023-04-26T04:26:25;143367.16;;;0.42;100.00
28354;BME280;15603;50.878;8.036;2023-04-26T04:28:52;143355.13;;;0.37;100.00
28354;BME280;15603;50.878;8.036;2023-04-26T04:31:21;143337.03;;;0.29;100.00
28354;BME280;15603;50.878;8.036;2023-04-26T04:33:48;143347.84;;;0.34;100.00
28354;BME280;15603;50.878;8.036;2023-04-26T04:36:17;143357.50;;;0.38;100.00
28354;BME280;15603;50.878;8.036;2023-04-26T04:38:45;143316.50;;;0.21;100.00
28354;BME280;15603;50.878;8.036;2023-04-26T04:41:14;143327.38;;;0.25;100.00
28354;BME280;15603;50.878;8.036;2023-04-26T04:43:43;143337.03;;;0.29;100.00
28354;BME280;15603;50.878;8.036;2023-04-26T04:46:10;143350.28;;;0.35;100.00
28354;BME280;15603;50.878;8.036;2023-04-26T04:48:39;143386.47;;;0.50;100.00
28354;BME280;15603;50.878;8.036;2023-04-26T04:51:06;143388.88;;;0.51;100.00
28354;BME280;15603;50.878;8.036;2023-04-26T04:53:34;143376.78;;;0.46;100.00
28354;BME280;15603;50.878;8.036;2023-04-26T04:56:01;143345.47;;;0.33;100.00
28354;BME280;15603;50.878;8.036;2023-04-26T04:58:29;143314.09;;;0.19;100.00
28354;BME280;15603;50.878;8.036;2023-04-26T05:00:56;143405.78;;;0.58;100.00
28354;BME280;15603;50.878;8.036;2023-04-26T05:03:29;143421.44;;;0.65;100.00
28354;BME280;15603;50.878;8.036;2023-04-26T05:05:58;143333.41;;;0.28;100.00
28354;BME280;15603;50.878;8.036;2023-04-26T05:08:25;143403.34;;;0.57;100.00
28354;BME280;15603;50.878;8.036;2023-04-26T05:10:54;143451.63;;;0.78;100.00
28354;BME280;15603;50.878;8.036;2023-04-26T05:13:22;143408.16;;;0.59;100.00
28354;BME280;15603;50.878;8.036;2023-04-26T05:15:49;143499.91;;;0.98;100.00
28354;BME280;15603;50.878;8.036;2023-04-26T05:18:16;143521.56;;;1.08;100.00
28354;BME280;15603;50.878;8.036;2023-04-26T05:20:43;143519.19;;;1.07;100.00
28354;BME280;15603;50.878;8.036;2023-04-26T05:23:11;143467.28;;;0.85;100.00
28354;BME280;15603;50.878;8.036;2023-04-26T05:25:38;143540.94;;;1.16;100.00
28354;BME280;15603;50.878;8.036;2023-04-26T05:28:27;143521.56;;;1.08;100.00
28354;BME280;15603;50.878;8.036;2023-04-26T05:31:12;143550.56;;;1.20;100.00
28354;BME280;15603;50.878;8.036;2023-04-26T05:33:57;143579.53;;;1.32;100.00
28354;BME280;15603;50.878;8.036;2023-04-26T05:36:35;143572.31;;;1.29;100.00
28354;BME280;15603;50.878;8.036;2023-04-26T05:39:03;143531.28;;;1.12;100.00
28354;BME280;15603;50.878;8.036;2023-04-26T05:41:31;143548.13;;;1.19;100.00
28354;BME280;15603;50.878;8.036;2023-04-26T05:43:58;143560.22;;;1.24;100.00
28354;BME280;15603;50.878;8.036;2023-04-26T05:46:25;143577.13;;;1.31;100.00
28354;BME280;15603;50.878;8.036;2023-04-26T05:48:54;143533.66;;;1.13;100.00
28354;BME280;15603;50.878;8.036;2023-04-26T05:51:21;143583.16;;;1.34;100.00
28354;BME280;15603;50.878;8.036;2023-04-26T05:53:48;143531.28;;;1.12;100.00
28354;BME280;15603;50.878;8.036;2023-04-26T05:56:16;143577.13;;;1.31;100.00
28354;BME280;15603;50.878;8.036;2023-04-26T05:58:43;143623.00;;;1.51;100.00
28354;BME280;15603;50.878;8.036;2023-04-26T06:01:10;143654.41;;;1.64;100.00
28354;BME280;15603;50.878;8.036;2023-04-26T06:03:38;143660.41;;;1.67;100.00
28354;BME280;15603;50.878;8.036;2023-04-26T06:06:05;143718.38;;;1.91;100.00
28354;BME280;15603;50.878;8.036;2023-04-26T06:08:34;143671.31;;;1.71;100.00
28354;BME280;15603;50.878;8.036;2023-04-26T06:11:01;143731.69;;;1.97;100.00
28354;BME280;15603;50.878;8.036;2023-04-26T06:13:28;143788.41;;;2.21;100.00
28354;BME280;15603;50.878;8.036;2023-04-26T06:15:57;143765.47;;;2.11;100.00
28354;BME280;15603;50.878;8.036;2023-04-26T06:18:24;143830.72;;;2.39;100.00
28354;BME280;15603;50.878;8.036;2023-04-26T06:20:51;143829.50;;;2.39;100.00
28354;BME280;15603;50.878;8.036;2023-04-26T06:23:19;143821.06;;;2.35;100.00
28354;BME280;15603;50.878;8.036;2023-04-26T06:25:46;143841.59;;;2.44;100.00
28354;BME280;15603;50.878;8.036;2023-04-26T06:28:13;143893.56;;;2.66;100.00
28354;BME280;15603;50.878;8.036;2023-04-26T06:30:41;143925.00;;;2.79;100.00
28354;BME280;15603;50.878;8.036;2023-04-26T06:33:08;143970.91;;;2.99;100.00
28354;BME280;15603;50.878;8.036;2023-04-26T06:35:42;143980.56;;;3.03;100.00
28354;BME280;15603;50.878;8.036;2023-04-26T06:38:10;144024.06;;;3.21;100.00
28354;BME280;15603;50.878;8.036;2023-04-26T06:40:38;144074.88;;;3.43;100.00
28354;BME280;15603;50.878;8.036;2023-04-26T06:43:06;144120.81;;;3.62;100.00
28354;BME280;15603;50.878;8.036;2023-04-26T06:45:58;144157.09;;;3.78;100.00
28354;BME280;15603;50.878;8.036;2023-04-26T06:48:25;144145.00;;;3.72;100.00
28354;BME280;15603;50.878;8.036;2023-04-26T06:50:53;144182.47;;;3.88;100.00
28354;BME280;15603;50.878;8.036;2023-04-26T06:53:20;144151.03;;;3.75;100.00
28354;BME280;15603;50.878;8.036;2023-04-26T06:55:49;144200.63;;;3.96;100.00
28354;BME280;15603;50.878;8.036;2023-04-26T06:58:16;144204.25;;;3.98;100.00
28354;BME280;15603;50.878;8.036;2023-04-26T07:00:43;144263.53;;;4.23;100.00
28354;BME280;15603;50.878;8.036;2023-04-26T07:03:10;144292.59;;;4.35;100.00
28354;BME280;15603;50.878;8.036;2023-04-26T07:05:38;144316.78;;;4.45;100.00
28354;BME280;15603;50.878;8.036;2023-04-26T07:08:05;144319.16;;;4.46;100.00
28354;BME280;15603;50.878;8.036;2023-04-26T07:10:32;144331.28;;;4.51;100.00
28354;BME280;15603;50.878;8.036;2023-04-26T07:13:00;144365.19;;;4.66;99.56
28354;BME280;15603;50.878;8.036;2023-04-26T07:15:27;144474.13;;;5.12;98.26
28354;BME280;15603;50.878;8.036;2023-04-26T07:17:54;144498.31;;;5.22;96.95
28354;BME280;15603;50.878;8.036;2023-04-26T07:20:21;144549.19;;;5.44;94.57
28354;BME280;15603;50.878;8.036;2023-04-26T07:22:50;144566.13;;;5.51;92.84
28354;BME280;15603;50.878;8.036;2023-04-26T07:25:17;144623.03;;;5.75;92.63
28354;BME280;15603;50.878;8.036;2023-04-26T07:27:44;144672.75;;;5.96;92.37
28354;BME280;15603;50.878;8.036;2023-04-26T07:30:12;144718.78;;;6.16;90.48
28354;BME280;15603;50.878;8.036;2023-04-26T07:32:39;144697.00;;;6.06;88.29
28354;BME280;15603;50.878;8.036;2023-04-26T07:35:06;144646.06;;;5.85;88.17
28354;BME280;15603;50.878;8.036;2023-04-26T07:37:34;144641.22;;;5.83;90.22
28354;BME280;15603;50.878;8.036;2023-04-26T07:40:01;144753.94;;;6.31;88.07
28354;BME280;15603;50.878;8.036;2023-04-26T07:42:29;144894.53;;;6.90;86.08
28354;BME280;15603;50.878;8.036;2023-04-26T07:44:56;144957.56;;;7.17;85.63
28354;BME280;15603;50.878;8.036;2023-04-26T07:47:23;145019.44;;;7.43;84.04
28354;BME280;15603;50.878;8.036;2023-04-26T07:49:53;145009.69;;;7.39;83.45
28354;BME280;15603;50.878;8.036;2023-04-26T07:52:20;145089.75;;;7.73;81.11
28354;BME280;15603;50.878;8.036;2023-04-26T07:54:48;145116.44;;;7.84;81.86
28354;BME280;15603;50.878;8.036;2023-04-26T07:57:15;145047.31;;;7.55;79.12
28354;BME280;15603;50.878;8.036;2023-04-26T07:59:42;145052.16;;;7.57;80.84
28354;BME280;15603;50.878;8.036;2023-04-26T08:02:09;145094.59;;;7.75;80.28
28354;BME280;15603;50.878;8.036;2023-04-26T08:04:36;145036.38;;;7.50;81.24
28354;BME280;15603;50.878;8.036;2023-04-26T08:07:04;145014.53;;;7.41;78.46
28354;BME280;15603;50.878;8.036;2023-04-26T08:09:31;144873.94;;;6.81;77.82
28354;BME280;15603;50.878;8.036;2023-04-26T08:11:58;144950.28;;;7.14;82.15
28354;BME280;15603;50.878;8.036;2023-04-26T08:14:25;144915.16;;;6.99;80.77
28354;BME280;15603;50.878;8.036;2023-04-26T08:16:52;144956.38;;;7.16;76.37
28354;BME280;15603;50.878;8.036;2023-04-26T08:19:19;144912.72;;;6.98;71.85
28354;BME280;15603;50.878;8.036;2023-04-26T08:21:47;144882.38;;;6.85;70.57
28354;BME280;15603;50.878;8.036;2023-04-26T08:24:14;144880.00;;;6.84;70.88
28354;BME280;15603;50.878;8.036;2023-04-26T08:26:41;144898.16;;;6.92;70.38
28354;BME280;15603;50.878;8.036;2023-04-26T08:29:08;145017.00;;;7.42;69.32
28354;BME280;15603;50.878;8.036;2023-04-26T08:31:35;145048.53;;;7.55;65.86
28354;BME280;15603;50.878;8.036;2023-04-26T08:34:02;145148.00;;;7.97;65.38
28354;BME280;15603;50.878;8.036;2023-04-26T08:36:29;145122.50;;;7.86;64.55
28354;BME280;15603;50.878;8.036;2023-04-26T08:38:58;145059.41;;;7.60;63.90
28354;BME280;15603;50.878;8.036;2023-04-26T08:41:26;145098.25;;;7.76;68.15
28354;BME280;15603;50.878;8.036;2023-04-26T08:43:53;145101.91;;;7.78;67.84
28354;BME280;15603;50.878;8.036;2023-04-26T08:46:23;145092.22;;;7.74;63.66
28354;BME280;15603;50.878;8.036;2023-04-26T08:49:44;145158.91;;;8.02;63.41
28354;BME280;15603;50.878;8.036;2023-04-26T08:51:45;145148.00;;;7.97;63.02
28354;BME280;15603;50.878;8.036;2023-04-26T08:54:14;145104.31;;;7.79;63.43
28354;BME280;15603;50.878;8.036;2023-04-26T08:56:43;145100.66;;;7.77;66.04
28354;BME280;15603;50.878;8.036;2023-04-26T08:59:10;145075.22;;;7.66;66.91
28354;BME280;15603;50.878;8.036;2023-04-26T09:01:41;145116.44;;;7.84;63.79
28354;BME280;15603;50.878;8.036;2023-04-26T09:04:09;145101.91;;;7.78;67.67
28354;BME280;15603;50.878;8.036;2023-04-26T09:06:38;145126.16;;;7.88;69.37
28354;BME280;15603;50.878;8.036;2023-04-26T09:09:07;145137.06;;;7.93;64.33
28354;BME280;15603;50.878;8.036;2023-04-26T09:11:55;145160.09;;;8.02;67.90
28354;BME280;15603;50.878;8.036;2023-04-26T09:14:22;145257.25;;;8.43;60.66
28354;BME280;15603;50.878;8.036;2023-04-26T09:16:49;145313.06;;;8.67;60.89
28354;BME280;15603;50.878;8.036;2023-04-26T09:19:33;145262.09;;;8.45;64.52
28354;BME280;15603;50.878;8.036;2023-04-26T09:22:02;145288.81;;;8.57;59.65
28354;BME280;15603;50.878;8.036;2023-04-26T09:24:48;145317.91;;;8.69;57.66
28354;BME280;15603;50.878;8.036;2023-04-26T09:27:16;145212.28;;;8.24;57.35
28354;BME280;15603;50.878;8.036;2023-04-26T09:32:49;145240.19;;;8.36;58.82
28354;BME280;15603;50.878;8.036;2023-04-26T09:35:23;145314.25;;;8.68;58.96
28354;BME280;15603;50.878;8.036;2023-04-26T09:38:02;145308.22;;;8.65;57.50
28354;BME280;15603;50.878;8.036;2023-04-26T09:40:43;145337.31;;;8.77;57.80
28354;BME280;15603;50.878;8.036;2023-04-26T09:43:14;145381.06;;;8.96;57.22
28354;BME280;15603;50.878;8.036;2023-04-26T09:45:47;145292.47;;;8.58;58.02
28354;BME280;15603;50.878;8.036;2023-04-26T09:53:33;145383.50;;;8.97;54.81
28354;BME280;15603;50.878;8.036;2023-04-26T09:58:37;145395.63;;;9.02;54.39
28354;BME280;15603;50.878;8.036;2023-04-26T10:01:06;145303.38;;;8.63;54.91
28354;BME280;15603;50.878;8.036;2023-04-26T10:03:34;145254.78;;;8.42;58.20
28354;BME280;15603;50.878;8.036;2023-04-26T10:06:03;145439.34;;;9.20;57.59
28354;BME280;15603;50.878;8.036;2023-04-26T10:08:31;145441.75;;;9.21;56.45
28354;BME280;15603;50.878;8.036;2023-04-26T10:10:59;145400.47;;;9.04;56.36
28354;BME280;15603;50.878;8.036;2023-04-26T10:13:33;145459.97;;;9.29;52.87
28354;BME280;15603;50.878;8.036;2023-04-26T10:16:01;145451.44;;;9.26;56.91
28354;BME280;15603;50.878;8.036;2023-04-26T10:18:29;145480.63;;;9.38;56.82
28354;BME280;15603;50.878;8.036;2023-04-26T10:21:20;145523.13;;;9.56;56.82
28354;BME280;15603;50.878;8.036;2023-04-26T10:23:48;145543.78;;;9.65;56.91
28354;BME280;15603;50.878;8.036;2023-04-26T10:26:53;145538.94;;;9.62;56.46
28354;BME280;15603;50.878;8.036;2023-04-26T10:29:23;145633.66;;;10.02;55.48
28354;BME280;15603;50.878;8.036;2023-04-26T10:34:29;145575.38;;;9.78;55.21
28354;BME280;15603;50.878;8.036;2023-04-26T10:37:15;145638.56;;;10.05;55.01
28354;BME280;15603;50.878;8.036;2023-04-26T10:39:44;145682.25;;;10.23;53.98
28354;BME280;15603;50.878;8.036;2023-04-26T10:42:21;145621.53;;;9.97;56.66
28354;BME280;15603;50.878;8.036;2023-04-26T10:44:57;145542.53;;;9.64;56.68
28354;BME280;15603;50.878;8.036;2023-04-26T10:47:32;145526.78;;;9.57;53.65
28354;BME280;15603;50.878;8.036;2023-04-26T10:50:09;145511.00;;;9.51;50.26
28354;BME280;15603;50.878;8.036;2023-04-26T10:53:04;145378.59;;;8.95;54.50
28354;BME280;15603;50.878;8.036;2023-04-26T10:55:41;145450.25;;;9.25;55.59
28354;BME280;15603;50.878;8.036;2023-04-26T11:03:36;145570.50;;;9.76;51.72
28354;BME280;15603;50.878;8.036;2023-04-26T11:06:08;145444.19;;;9.22;51.93
28354;BME280;15603;50.878;8.036;2023-04-26T11:08:36;145558.34;;;9.71;52.55
28354;BME280;15603;50.878;8.036;2023-04-26T11:13:35;145636.09;;;10.03;51.64
28354;BME280;15603;50.878;8.036;2023-04-26T11:16:08;145786.84;;;10.67;51.36
28354;BME280;15603;50.878;8.036;2023-04-26T11:18:37;145599.66;;;9.88;48.63
28354;BME280;15603;50.878;8.036;2023-04-26T11:21:05;145677.41;;;10.21;51.56
28354;BME280;15603;50.878;8.036;2023-04-26T11:23:33;145689.56;;;10.26;50.60
28354;BME280;15603;50.878;8.036;2023-04-26T11:26:03;145709.06;;;10.34;48.46
28354;BME280;15603;50.878;8.036;2023-04-26T11:28:31;145755.22;;;10.54;47.79
28354;BME280;15603;50.878;8.036;2023-04-26T11:31:02;145619.06;;;9.96;45.75
28354;BME280;15603;50.878;8.036;2023-04-26T11:33:30;145703.00;;;10.32;47.73
28354;BME280;15603;50.878;8.036;2023-04-26T11:35:57;145733.34;;;10.45;49.47
28354;BME280;15603;50.878;8.036;2023-04-26T11:38:26;145677.41;;;10.21;47.24
28354;BME280;15603;50.878;8.036;2023-04-26T11:43:22;145696.84;;;10.29;48.54
28354;BME280;15603;50.878;8.036;2023-04-26T11:45:57;145795.34;;;10.71;47.00
28354;BME280;15603;50.878;8.036;2023-04-26T11:48:26;145828.16;;;10.85;47.68
28354;BME280;15603;50.878;8.036;2023-04-26T11:50:55;145762.53;;;10.57;46.03
28354;BME280;15603;50.878;8.036;2023-04-26T11:53:23;145801.41;;;10.73;48.51
28354;BME280;15603;50.878;8.036;2023-04-26T11:55:50;145920.56;;;11.24;47.03
28354;BME280;15603;50.878;8.036;2023-04-26T11:58:17;145989.91;;;11.53;47.27
28354;BME280;15603;50.878;8.036;2023-04-26T12:00:58;146117.69;;;12.07;45.83
28354;BME280;15603;50.878;8.036;2023-04-26T12:03:33;146050.72;;;11.78;46.30
28354;BME280;15603;50.878;8.036;2023-04-26T12:06:04;145901.09;;;11.15;44.10
28354;BME280;15603;50.878;8.036;2023-04-26T12:08:32;145818.44;;;10.80;43.31
28354;BME280;15603;50.878;8.036;2023-04-26T12:11:01;145854.91;;;10.96;44.79
28354;BME280;15603;50.878;8.036;2023-04-26T12:13:28;145681.06;;;10.22;44.61
28354;BME280;15603;50.878;8.036;2023-04-26T12:15:56;145763.75;;;10.57;48.63
28354;BME280;15603;50.878;8.036;2023-04-26T12:18:30;145757.69;;;10.55;47.64
28354;BME280;15603;50.878;8.036;2023-04-26T12:20:58;145918.16;;;11.23;47.11
28354;BME280;15603;50.878;8.036;2023-04-26T12:23:26;145927.88;;;11.27;46.38
28354;BME280;15603;50.878;8.036;2023-04-26T12:25:55;145901.09;;;11.15;43.63
28354;BME280;15603;50.878;8.036;2023-04-26T12:28:23;145930.28;;;11.28;43.27
28354;BME280;15603;50.878;8.036;2023-04-26T12:30:50;145835.47;;;10.88;45.85
28354;BME280;15603;50.878;8.036;2023-04-26T12:33:17;145944.91;;;11.34;46.08
28354;BME280;15603;50.878;8.036;2023-04-26T12:35:48;145927.88;;;11.27;40.35
28354;BME280;15603;50.878;8.036;2023-04-26T12:38:17;145846.41;;;10.92;42.47
28354;BME280;15603;50.878;8.036;2023-04-26T12:40:44;145908.44;;;11.18;43.28
28354;BME280;15603;50.878;8.036;2023-04-26T12:43:12;145904.78;;;11.17;42.10
28354;BME280;15603;50.878;8.036;2023-04-26T12:45:39;145812.38;;;10.78;43.85
28354;BME280;15603;50.878;8.036;2023-04-26T12:48:07;145983.81;;;11.50;42.24
28354;BME280;15603;50.878;8.036;2023-04-26T12:50:34;145986.25;;;11.51;44.79
28354;BME280;15603;50.878;8.036;2023-04-26T12:53:01;145998.38;;;11.56;43.55
28354;BME280;15603;50.878;8.036;2023-04-26T12:55:28;146076.28;;;11.89;42.68
28354;BME280;15603;50.878;8.036;2023-04-26T12:57:58;145938.78;;;11.31;44.63
28354;BME280;15603;50.878;8.036;2023-04-26T13:00:25;146086.06;;;11.93;43.88
28354;BME280;15603;50.878;8.036;2023-04-26T13:02:53;146112.78;;;12.05;44.17
28354;BME280;15603;50.878;8.036;2023-04-26T13:05:21;146207.69;;;12.45;40.25
28354;BME280;15603;50.878;8.036;2023-04-26T13:07:50;146173.66;;;12.30;40.37
28354;BME280;15603;50.878;8.036;2023-04-26T13:10:17;146066.50;;;11.85;39.98
28354;BME280;15603;50.878;8.036;2023-04-26T13:12:44;146111.56;;;12.04;43.18
28354;BME280;15603;50.878;8.036;2023-04-26T13:15:11;146202.84;;;12.43;42.24
28354;BME280;15603;50.878;8.036;2023-04-26T13:17:39;146361.09;;;13.09;41.98
28354;BME280;15603;50.878;8.036;2023-04-26T13:20:09;146435.41;;;13.41;42.66
28354;BME280;15603;50.878;8.036;2023-04-26T13:22:36;146305.09;;;12.86;40.64
28354;BME280;15603;50.878;8.036;2023-04-26T13:25:05;146230.81;;;12.54;42.06
28354;BME280;15603;50.878;8.036;2023-04-26T13:27:32;146051.91;;;11.79;40.44